Time;durP1;ratioP1;P1;durP2;ratioP2;P2;SDS_P1;SDS_P2;PMS_P1;PMS_P2;Temp;Humidity;BMP_temperature;BMP_pressure;BME280_temperature;BME280_humidity;BME280_pressure;Samples;Min_cycle;Max_cycle;Signal;HPM_P1;HPM_P2
2022/02/05 00:00:39;;;;;;;;;;;;;;;;;;1030605;28;967;-41
2022/02/05 00:01:22;;;;;;;;;;;;;;;;;;1030750;28;792;-41
2022/02/05 00:01:54;;;;;;;;;;;;;;;;;;1030937;28;918;-38
2022/02/05 00:02:29;;;;;;;;;;;;;;;;;;1030866;28;1725;-40
2022/02/05 00:03:41;;;;;;;;;;;;;;;;;;1031043;28;842;-40
2022/02/05 00:04:14;;;;;;;;;;;;;;;;;;1030809;28;993;-40
2022/02/05 00:04:46;;;;;;;;;;;;;;;;;;1030690;28;1972;-40
2022/02/05 00:05:19;;;;;;;;;;;;;;;;;;1030850;28;1040;-40
2022/02/05 00:05:56;;;;;;;;;;;;;;;;;;1030751;28;1395;-40
2022/02/05 00:06:32;;;;;;;;;;;;;;;;;;1030889;28;898;-40
2022/02/05 00:07:05;;;;;;;;;;;;;;;;;;1030893;28;966;-40
2022/02/05 00:07:40;;;;;;;;;;;;;;;;;;1030826;28;953;-39
2022/02/05 00:09:02;;;;;;;;;;;;;;;;;;1031003;28;951;-40
2022/02/05 00:09:48;;;;;;;;;;;;;;;;;;1030845;28;1082;-40
2022/02/05 00:13:32;;;;;;;;;;;;;;;;;;1023454;28;1168;-40
2022/02/05 00:15:35;;;;;;;;;;;;;;;;;;1031001;28;994;-40
2022/02/05 00:32:59;;;;;;;;;;;;;;;;;;1030740;28;855;-40
2022/02/05 00:38:19;;;;;;;;;;;;;;;;;;1030483;28;918;-39
2022/02/05 00:40:16;;;;;;;;;;;;;;;;;;1030714;28;891;-40
2022/02/05 00:40:53;;;;;;;;;;;;;;;;;;1030706;28;1033;-40
2022/02/05 00:41:46;;;;;;;;;;;;;;;;;;1030582;28;918;-40
2022/02/05 00:42:32;;;;;;;;;;;;;;;;;;1030595;28;1180;-40
2022/02/05 00:43:03;;;;;;;;;;;;;;;;;;1030648;28;902;-40
2022/02/05 00:43:33;;;;;;;;;;;;;;;;;;1030776;28;971;-40
2022/02/05 00:44:04;;;;;;;;;;;;;;;;;;1030231;28;1172;-41
2022/02/05 00:44:34;;;;;;;;;;;;;;;;;;1030310;28;961;-42
2022/02/05 00:45:08;;;;;;;;;;;;;;;;;;1030515;28;1978;-40
2022/02/05 00:45:42;;;;;;;;;;;;;;;;;;1030337;28;946;-40
2022/02/05 00:46:14;;;;;;;;;;;;;;;;;;1030866;28;1033;-40
2022/02/05 00:46:46;;;;;;;;;;;;;;;;;;1030628;28;884;-40
2022/02/05 00:47:17;;;;;;;;;;;;;;;;;;1030707;28;895;-41
2022/02/05 00:47:48;;;;;;;;;;;;;;;;;;1030800;28;990;-39
2022/02/05 00:48:19;;;;;;;;;;;;;;;;;;1030652;28;1022;-41
2022/02/05 00:48:50;;;;;;;;;;;;;;;;;;1030822;28;722;-40
2022/02/05 00:49:20;;;;;;;;;;;;;;;;;;1030710;28;1043;-41
2022/02/05 00:49:57;;;;;;;;;;;;;;;;;;1030755;28;973;-40
2022/02/05 00:50:29;;;;;;;;;;;;;;;;;;1030680;28;1053;-39
2022/02/05 00:51:11;;;;;;;;;;;;;;;;;;1030462;28;906;-41
2022/02/05 00:51:50;;;;;;;;;;;;;;;;;;1030722;28;800;-40
2022/02/05 00:52:21;;;;;;;;;;;;;;;;;;1030839;28;803;-41
2022/02/05 00:53:06;;;;;;;;;;;;;;;;;;1030649;28;1090;-40
2022/02/05 00:53:38;;;;;;;;;;;;;;;;;;1030532;28;860;-41
2022/02/05 00:54:15;;;;;;;;;;;;;;;;;;1030808;28;937;-40
2022/02/05 00:54:50;;;;;;;;;;;;;;;;;;1030850;28;891;-40
2022/02/05 00:55:24;;;;;;;;;;;;;;;;;;1030540;28;1065;-40
2022/02/05 00:56:11;;;;;;;;;;;;;;;;;;1030550;28;946;-41
2022/02/05 00:57:47;;;;;;;;;;;;;;;;;;1030740;28;807;-38
2022/02/05 00:58:18;;;;;;;;;;;;;;;;;;1030773;28;947;-40
2022/02/05 00:58:48;;;;;;;;;;;;;;;;;;1030545;28;954;-41
2022/02/05 00:59:20;;;;;;;;;;;;;;;;;;1030791;28;946;-40
2022/02/05 00:59:50;;;;;;;;;;;;;;;;;;1030727;28;1005;-39
2022/02/05 01:00:20;;;;;;;;;;;;;;;;;;1030508;28;954;-38
2022/02/05 01:00:50;;;;;;;;;;;;;;;;;;1030900;28;1070;-40
2022/02/05 01:01:21;;;;;;;;;;;;;;;;;;1030465;28;1026;-38
2022/02/05 01:01:51;;;;;;;;;;;;;;;;;;1030931;28;839;-40
2022/02/05 01:02:23;;;;;;;;;;;;;;;;;;1030640;28;868;-40
2022/02/05 01:02:53;;;;;;;;;;;;;;;;;;1030702;28;922;-40
2022/02/05 01:03:23;;;;;;;;;;;;;;;;;;1030788;28;1006;-39
2022/02/05 01:03:53;;;;;;;;;;;;;;;;;;1030586;28;808;-39
2022/02/05 01:04:24;;;;;;;;;;;;;;;;;;1030791;28;1090;-40
2022/02/05 01:04:54;;;;;;;;;;;;;;;;;;1030450;28;1906;-40
2022/02/05 01:05:25;;;;;;;;;;;;;;;;;;1030762;28;958;-39
2022/02/05 01:05:55;;;;;;;;;;;;;;;;;;1030747;28;962;-40
2022/02/05 01:06:25;;;;;;;;;;;;;;;;;;1030564;28;923;-39
2022/02/05 01:06:56;;;;;;;;;;;;;;;;;;1030836;28;960;-40
2022/02/05 01:07:27;;;;;;;;;;;;;;;;;;1030404;28;882;-40
2022/02/05 01:07:57;;;;;;;;;;;;;;;;;;1030876;28;1005;-40
2022/02/05 01:08:29;;;;;;;;;;;;;;;;;;1030566;28;1007;-40
2022/02/05 01:09:03;;;;;;;;;;;;;;;;;;1030731;28;929;-40
2022/02/05 01:09:33;;;;;;;;;;;;;;;;;;1030714;28;915;-40
2022/02/05 01:10:04;;;;;;;;;;;;;;;;;;1026274;28;918;-40
2022/02/05 01:10:35;;;;;;;;;;;;;;;;;;1026231;28;1004;-40
2022/02/05 01:11:05;;;;;;;;;;;;;;;;;;1026501;28;989;-39
2022/02/05 01:11:35;;;;;;;;;;;;;;;;;;1026325;28;954;-40
2022/02/05 01:12:06;;;;;;;;;;;;;;;;;;1030832;28;908;-37
2022/02/05 01:12:40;;;;;;;;;;;;;;;;;;1030607;28;800;-40
2022/02/05 01:13:12;;;;;;;;;;;;;;;;;;1030757;28;931;-39
2022/02/05 01:13:42;;;;;;;;;;;;;;;;;;1030632;28;1170;-40
2022/02/05 01:14:17;;;;;;;;;;;;;;;;;;1030611;28;819;-40
2022/02/05 01:14:52;;;;;;;;;;;;;;;;;;1030841;28;955;-40
2022/02/05 01:15:28;;;;;;;;;;;;;;;;;;1030561;28;990;-40
2022/02/05 01:16:08;;;;;;;;;;;;;;;;;;1030693;28;942;-39
2022/02/05 01:17:31;;;;;;;;;;;;;;;;;;1030715;28;1074;-39
2022/02/05 01:18:05;;;;;;;;;;;;;;;;;;1030564;28;1232;-39
2022/02/05 01:18:38;;;;;;;;;;;;;;;;;;1030527;28;902;-39
2022/02/05 01:19:15;;;;;;;;;;;;;;;;;;1030805;28;982;-39
2022/02/05 01:21:59;;;;;;;;;;;;;;;;;;1030896;28;898;-40
2022/02/05 01:22:32;;;;;;;;;;;;;;;;;;1030543;28;800;-40
2022/02/05 01:23:07;;;;;;;;;;;;;;;;;;1030732;28;923;-39
2022/02/05 01:24:13;;;;;;;;;;;;;;;;;;1030674;28;1111;-37
2022/02/05 01:24:46;;;;;;;;;;;;;;;;;;1030475;28;1987;-40
2022/02/05 01:25:21;;;;;;;;;;;;;;;;;;1030739;28;972;-39
2022/02/05 01:26:01;;;;;;;;;;;;;;;;;;1030481;28;998;-39
2022/02/05 01:26:44;;;;;;;;;;;;;;;;;;1030446;28;922;-41
2022/02/05 01:28:01;;;;;;;;;;;;;;;;;;1030677;28;815;-40
2022/02/05 01:28:19;;;;;;;;;;;;;;;;;;1024964;28;1429;-40
2022/02/05 01:28:56;;;;;;;;;;;;;;;;;;1030571;28;1181;-40
2022/02/05 01:30:32;;;;;;;;;;;;;;;;;;1022127;28;1029;-40
2022/02/05 01:30:32;;;;;;;;;;;;;;;;;;1030773;28;887;-40
2022/02/05 01:31:02;;;;;;;;;;;;;;;;;;1030515;28;1394;-39
2022/02/05 01:31:45;;;;;;;;;;;;;;;;;;1030534;28;875;-40
2022/02/05 01:32:21;;;;;;;;;;;;;;;;;;1030764;28;1121;-40
2022/02/05 01:33:02;;;;;;;;;;;;;;;;;;1030412;28;1001;-40
2022/02/05 01:33:46;;;;;;;;;;;;;;;;;;1030523;28;999;-39
2022/02/05 01:35:05;;;;;;;;;;;;;;;;;;1030616;28;1420;-40
2022/02/05 01:35:19;;;;;;;;;;;;;;;;;;1022519;28;1232;-40
2022/02/05 01:36:10;;;;;;;;;;;;;;;;;;1030757;28;771;-40
2022/02/05 01:48:44;;;;;;;;;;;;;;;;;;1030705;28;986;-40
2022/02/05 01:49:48;;;;;;;;;;;;;;;;;;1030205;28;1643;-41
2022/02/05 01:51:11;;;;;;;;;;;;;;;;;;1031133;28;831;-39
2022/02/05 01:52:00;;;;;;;;;;;;;;;;;;1031253;28;787;-40
2022/02/05 01:52:53;;;;;;;;;;;;;;;;;;1031249;28;997;-40
2022/02/05 01:53:35;;;;;;;;;;;;;;;;;;1031327;28;1671;-40
2022/02/05 01:56:44;;;;;;;;;;;;;;;;;;1031356;28;1101;-40
2022/02/05 01:57:18;;;;;;;;;;;;;;;;;;1031280;28;1062;-40
2022/02/05 01:58:10;;;;;;;;;;;;;;;;;;1031185;28;1314;-40
2022/02/05 01:59:16;;;;;;;;;;;;;;;;;;1031224;28;985;-41
2022/02/05 02:04:47;;;;;;;;;;;;;;;;;;1031202;28;1025;-41
2022/02/05 02:05:00;;;;;;;;;;;;;;;;;;1031149;28;1918;-39
2022/02/05 02:05:38;;;;;;;;;;;;;;;;;;1031455;28;862;-40
2022/02/05 02:09:45;;;;;;;;;;;;;;;;;;1031135;28;930;-40
2022/02/05 02:11:21;;;;;;;;;;;;;;;;;;1031014;28;879;-39
2022/02/05 02:11:59;;;;;;;;;;;;;;;;;;1031247;28;1056;-39
2022/02/05 02:12:39;;;;;;;;;;;;;;;;;;1031255;28;819;-40
2022/02/05 02:13:46;;;;;;;;;;;;;;;;;;1031462;28;1038;-40
2022/02/05 02:15:31;;;;;;;;;;;;;;;;;;1031000;28;1032;-39
2022/02/05 02:18:22;;;;;;;;;;;;;;;;;;1031383;28;1691;-39
2022/02/05 02:19:23;;;;;;;;;;;;;;;;;;1031102;28;966;-37
2022/02/05 02:22:06;;;;;;;;;;;;;;;;;;1031262;28;1077;-41
2022/02/05 02:23:19;;;;;;;;;;;;;;;;;;1030789;28;1319;-40
2022/02/05 02:23:40;;;;;;;;;;;;;;;;;;1022902;28;1357;-40
2022/02/05 02:24:23;;;;;;;;;;;;;;;;;;1031145;28;991;-40
2022/02/05 02:25:03;;;;;;;;;;;;;;;;;;1031157;28;1970;-40
2022/02/05 02:27:23;;;;;;;;;;;;;;;;;;1018449;29;1518;-40
2022/02/05 02:28:10;;;;;;;;;;;;;;;;;;1022474;28;986;-40
2022/02/05 02:28:49;;;;;;;;;;;;;;;;;;1031221;28;1126;-40
2022/02/05 02:29:33;;;;;;;;;;;;;;;;;;1030983;28;811;-40
2022/02/05 02:30:18;;;;;;;;;;;;;;;;;;1026766;28;851;-41
2022/02/05 02:30:59;;;;;;;;;;;;;;;;;;1026659;28;899;-40
2022/02/05 02:31:35;;;;;;;;;;;;;;;;;;1027039;28;784;-40
2022/02/05 02:32:05;;;;;;;;;;;;;;;;;;1031112;28;904;-39
2022/02/05 02:32:40;;;;;;;;;;;;;;;;;;1031230;28;807;-39
2022/02/05 02:33:19;;;;;;;;;;;;;;;;;;1031364;28;1041;-40
2022/02/05 02:33:54;;;;;;;;;;;;;;;;;;1031247;28;855;-40
2022/02/05 02:34:29;;;;;;;;;;;;;;;;;;1031127;28;811;-40
2022/02/05 02:35:08;;;;;;;;;;;;;;;;;;1031291;28;899;-39
2022/02/05 02:35:44;;;;;;;;;;;;;;;;;;1031275;28;879;-38
2022/02/05 02:36:35;;;;;;;;;;;;;;;;;;1031050;28;898;-40
2022/02/05 02:37:09;;;;;;;;;;;;;;;;;;1031042;28;971;-39
2022/02/05 02:37:49;;;;;;;;;;;;;;;;;;1031179;28;902;-41
2022/02/05 02:38:24;;;;;;;;;;;;;;;;;;1031260;28;906;-40
2022/02/05 02:39:00;;;;;;;;;;;;;;;;;;1031018;28;1001;-40
2022/02/05 02:39:40;;;;;;;;;;;;;;;;;;1031232;28;958;-40
2022/02/05 02:41:00;;;;;;;;;;;;;;;;;;1031017;28;926;-40
2022/02/05 02:41:37;;;;;;;;;;;;;;;;;;1030940;28;1003;-40
2022/02/05 02:42:11;;;;;;;;;;;;;;;;;;1031151;28;902;-40
2022/02/05 02:42:45;;;;;;;;;;;;;;;;;;1031145;28;963;-38
2022/02/05 02:43:24;;;;;;;;;;;;;;;;;;1031159;28;970;-40
2022/02/05 02:43:54;;;;;;;;;;;;;;;;;;1031108;28;859;-40
2022/02/05 02:44:24;;;;;;;;;;;;;;;;;;1031089;28;884;-39
2022/02/05 02:44:55;;;;;;;;;;;;;;;;;;1031041;28;1914;-39
2022/02/05 02:45:25;;;;;;;;;;;;;;;;;;1031175;28;1210;-39
2022/02/05 02:45:56;;;;;;;;;;;;;;;;;;1031106;28;926;-40
2022/02/05 02:46:27;;;;;;;;;;;;;;;;;;1031021;28;961;-39
2022/02/05 02:46:57;;;;;;;;;;;;;;;;;;1031153;28;947;-40
2022/02/05 02:47:27;;;;;;;;;;;;;;;;;;1031052;28;970;-39
2022/02/05 02:47:57;;;;;;;;;;;;;;;;;;1031307;28;971;-39
2022/02/05 02:48:28;;;;;;;;;;;;;;;;;;1030886;28;852;-38
2022/02/05 02:49:01;;;;;;;;;;;;;;;;;;1031284;28;1052;-40
2022/02/05 02:56:54;;;;;;;;;;;;;;;;;;1031188;28;892;-40
2022/02/05 02:57:29;;;;;;;;;;;;;;;;;;1031042;28;922;-39
2022/02/05 02:58:04;;;;;;;;;;;;;;;;;;1030947;28;830;-40
2022/02/05 02:58:38;;;;;;;;;;;;;;;;;;1031156;28;787;-39
2022/02/05 02:59:23;;;;;;;;;;;;;;;;;;1031189;28;891;-39
2022/02/05 02:59:58;;;;;;;;;;;;;;;;;;1031082;28;895;-39
2022/02/05 03:00:29;;;;;;;;;;;;;;;;;;1030955;28;871;-38
2022/02/05 03:01:00;;;;;;;;;;;;;;;;;;1030739;28;1039;-39
2022/02/05 03:01:34;;;;;;;;;;;;;;;;;;1031161;28;918;-39
2022/02/05 03:02:13;;;;;;;;;;;;;;;;;;1031398;28;819;-39
2022/02/05 03:02:43;;;;;;;;;;;;;;;;;;1031020;28;990;-39
2022/02/05 03:03:13;;;;;;;;;;;;;;;;;;1030966;28;933;-39
2022/02/05 03:03:44;;;;;;;;;;;;;;;;;;1031088;28;1045;-40
2022/02/05 03:04:14;;;;;;;;;;;;;;;;;;1030953;28;992;-39
2022/02/05 03:04:44;;;;;;;;;;;;;;;;;;1031137;28;1973;-39
2022/02/05 03:05:15;;;;;;;;;;;;;;;;;;1030888;28;962;-39
2022/02/05 03:05:45;;;;;;;;;;;;;;;;;;1031101;28;875;-40
2022/02/05 03:06:15;;;;;;;;;;;;;;;;;;1031238;28;936;-40
2022/02/05 03:06:46;;;;;;;;;;;;;;;;;;1030878;28;966;-39
2022/02/05 03:07:16;;;;;;;;;;;;;;;;;;1031107;28;962;-40
2022/02/05 03:07:46;;;;;;;;;;;;;;;;;;1030841;28;899;-39
2022/02/05 03:08:17;;;;;;;;;;;;;;;;;;1031108;28;839;-40
2022/02/05 03:08:49;;;;;;;;;;;;;;;;;;1031155;28;898;-39
2022/02/05 03:09:20;;;;;;;;;;;;;;;;;;1030743;28;962;-40
2022/02/05 03:09:51;;;;;;;;;;;;;;;;;;1031320;28;953;-40
2022/02/05 03:10:22;;;;;;;;;;;;;;;;;;1030703;28;886;-40
2022/02/05 03:10:52;;;;;;;;;;;;;;;;;;1031279;28;914;-41
2022/02/05 03:11:23;;;;;;;;;;;;;;;;;;1030984;28;961;-40
2022/02/05 03:11:53;;;;;;;;;;;;;;;;;;1030999;28;854;-40
2022/02/05 03:12:24;;;;;;;;;;;;;;;;;;1031027;28;902;-40
2022/02/05 03:12:55;;;;;;;;;;;;;;;;;;1030992;28;938;-40
2022/02/05 03:13:25;;;;;;;;;;;;;;;;;;1031082;28;949;-40
2022/02/05 03:13:56;;;;;;;;;;;;;;;;;;1030660;28;1192;-40
2022/02/05 03:14:26;;;;;;;;;;;;;;;;;;1030534;28;926;-40
2022/02/05 03:14:56;;;;;;;;;;;;;;;;;;1030922;28;938;-40
2022/02/05 03:15:35;;;;;;;;;;;;;;;;;;1030534;28;934;-40
2022/02/05 03:16:07;;;;;;;;;;;;;;;;;;1031021;28;889;-40
2022/02/05 03:16:38;;;;;;;;;;;;;;;;;;1031133;28;1005;-40
2022/02/05 03:17:16;;;;;;;;;;;;;;;;;;1030807;28;887;-38
2022/02/05 03:18:04;;;;;;;;;;;;;;;;;;1031031;28;803;-40
2022/02/05 03:19:17;;;;;;;;;;;;;;;;;;1031004;28;970;-40
2022/02/05 03:19:28;;;;;;;;;;;;;;;;;;1022775;28;1426;-40
2022/02/05 03:19:59;;;;;;;;;;;;;;;;;;1030804;28;938;-40
2022/02/05 03:20:29;;;;;;;;;;;;;;;;;;1030895;28;906;-40
2022/02/05 03:21:00;;;;;;;;;;;;;;;;;;1030925;28;1160;-41
2022/02/05 03:21:30;;;;;;;;;;;;;;;;;;1030878;28;820;-40
2022/02/05 03:22:01;;;;;;;;;;;;;;;;;;1031108;28;954;-41
2022/02/05 03:22:31;;;;;;;;;;;;;;;;;;1030729;28;1006;-40
2022/02/05 03:23:02;;;;;;;;;;;;;;;;;;1031124;28;977;-41
2022/02/05 03:23:32;;;;;;;;;;;;;;;;;;1030943;28;894;-40
2022/02/05 03:24:04;;;;;;;;;;;;;;;;;;1030952;28;1196;-41
2022/02/05 03:24:34;;;;;;;;;;;;;;;;;;1031096;28;1001;-39
2022/02/05 03:25:04;;;;;;;;;;;;;;;;;;1030705;28;1911;-40
2022/02/05 03:25:35;;;;;;;;;;;;;;;;;;1031153;28;866;-41
2022/02/05 03:26:05;;;;;;;;;;;;;;;;;;1030943;28;996;-40
2022/02/05 03:26:37;;;;;;;;;;;;;;;;;;1030910;28;850;-40
2022/02/05 03:27:07;;;;;;;;;;;;;;;;;;1031126;28;966;-40
2022/02/05 03:27:38;;;;;;;;;;;;;;;;;;1030844;28;863;-40
2022/02/05 03:28:08;;;;;;;;;;;;;;;;;;1031089;28;983;-40
2022/02/05 03:28:38;;;;;;;;;;;;;;;;;;1030756;28;1236;-40
2022/02/05 03:29:11;;;;;;;;;;;;;;;;;;1031010;28;996;-40
2022/02/05 03:29:45;;;;;;;;;;;;;;;;;;1031030;28;1064;-40
2022/02/05 03:30:15;;;;;;;;;;;;;;;;;;1030804;28;898;-40
2022/02/05 03:30:45;;;;;;;;;;;;;;;;;;1030522;28;984;-40
2022/02/05 03:31:16;;;;;;;;;;;;;;;;;;1030602;28;1078;-40
2022/02/05 03:31:46;;;;;;;;;;;;;;;;;;1030537;28;894;-40
2022/02/05 03:32:18;;;;;;;;;;;;;;;;;;1030751;28;897;-40
2022/02/05 03:32:48;;;;;;;;;;;;;;;;;;1026705;28;776;-40
2022/02/05 03:33:19;;;;;;;;;;;;;;;;;;1027019;28;923;-40
2022/02/05 03:33:49;;;;;;;;;;;;;;;;;;1026839;28;956;-41
2022/02/05 03:34:19;;;;;;;;;;;;;;;;;;1026990;28;938;-40
2022/02/05 03:34:50;;;;;;;;;;;;;;;;;;1026869;28;961;-40
2022/02/05 03:35:20;;;;;;;;;;;;;;;;;;1026887;28;907;-41
2022/02/05 03:35:51;;;;;;;;;;;;;;;;;;1026973;28;1077;-40
2022/02/05 03:36:21;;;;;;;;;;;;;;;;;;1026941;28;871;-40
2022/02/05 03:36:51;;;;;;;;;;;;;;;;;;1026885;28;937;-40
2022/02/05 03:37:22;;;;;;;;;;;;;;;;;;1026867;28;934;-40
2022/02/05 03:37:53;;;;;;;;;;;;;;;;;;1027086;28;807;-40
2022/02/05 03:38:23;;;;;;;;;;;;;;;;;;1026929;28;880;-39
2022/02/05 03:38:54;;;;;;;;;;;;;;;;;;1026777;28;1600;-40
2022/02/05 03:39:24;;;;;;;;;;;;;;;;;;1027057;28;938;-39
2022/02/05 03:39:54;;;;;;;;;;;;;;;;;;1026785;28;1015;-40
2022/02/05 03:40:25;;;;;;;;;;;;;;;;;;1026965;28;811;-39
2022/02/05 03:40:55;;;;;;;;;;;;;;;;;;1026722;28;942;-41
2022/02/05 03:41:26;;;;;;;;;;;;;;;;;;1026974;28;823;-40
2022/02/05 03:41:56;;;;;;;;;;;;;;;;;;1027051;28;977;-40
2022/02/05 03:42:26;;;;;;;;;;;;;;;;;;1026824;28;890;-40
2022/02/05 03:42:57;;;;;;;;;;;;;;;;;;1026984;28;975;-39
2022/02/05 03:43:27;;;;;;;;;;;;;;;;;;1026708;28;946;-40
2022/02/05 03:43:58;;;;;;;;;;;;;;;;;;1027017;28;856;-40
2022/02/05 03:44:28;;;;;;;;;;;;;;;;;;1026924;28;970;-40
2022/02/05 03:44:58;;;;;;;;;;;;;;;;;;1026610;28;1918;-40
2022/02/05 03:45:32;;;;;;;;;;;;;;;;;;1027163;28;1013;-40
2022/02/05 03:46:02;;;;;;;;;;;;;;;;;;1026570;28;982;-41
2022/02/05 03:46:32;;;;;;;;;;;;;;;;;;1027159;28;891;-40
2022/02/05 03:47:03;;;;;;;;;;;;;;;;;;1026778;28;975;-40
2022/02/05 03:47:34;;;;;;;;;;;;;;;;;;1026857;28;957;-40
2022/02/05 03:48:05;;;;;;;;;;;;;;;;;;1026975;28;871;-40
2022/02/05 03:48:36;;;;;;;;;;;;;;;;;;1026738;28;835;-40
2022/02/05 03:49:06;;;;;;;;;;;;;;;;;;1026983;28;890;-40
2022/02/05 03:49:37;;;;;;;;;;;;;;;;;;1026844;28;899;-39
2022/02/05 03:50:08;;;;;;;;;;;;;;;;;;1026708;28;870;-40
2022/02/05 03:50:38;;;;;;;;;;;;;;;;;;1026888;28;950;-39
2022/02/05 03:51:08;;;;;;;;;;;;;;;;;;1026840;28;974;-40
2022/02/05 03:51:39;;;;;;;;;;;;;;;;;;1026745;28;1068;-40
2022/02/05 03:52:09;;;;;;;;;;;;;;;;;;1026897;28;995;-41
2022/02/05 03:52:42;;;;;;;;;;;;;;;;;;1026855;28;973;-39
2022/02/05 03:53:13;;;;;;;;;;;;;;;;;;1027053;28;930;-40
2022/02/05 03:53:43;;;;;;;;;;;;;;;;;;1026739;28;974;-40
2022/02/05 03:54:14;;;;;;;;;;;;;;;;;;1026927;28;1051;-39
2022/02/05 03:54:45;;;;;;;;;;;;;;;;;;1026670;28;998;-39
2022/02/05 03:55:16;;;;;;;;;;;;;;;;;;1026979;28;937;-40
2022/02/05 03:55:46;;;;;;;;;;;;;;;;;;1026713;28;978;-40
2022/02/05 03:56:17;;;;;;;;;;;;;;;;;;1026928;28;934;-40
2022/02/05 03:56:48;;;;;;;;;;;;;;;;;;1026790;28;904;-40
2022/02/05 03:57:18;;;;;;;;;;;;;;;;;;1026862;28;950;-40
2022/02/05 03:57:48;;;;;;;;;;;;;;;;;;1026971;28;891;-40
2022/02/05 03:58:18;;;;;;;;;;;;;;;;;;1026775;28;946;-40
2022/02/05 03:58:49;;;;;;;;;;;;;;;;;;1026938;28;931;-41
2022/02/05 03:59:19;;;;;;;;;;;;;;;;;;1026879;28;875;-40
2022/02/05 03:59:50;;;;;;;;;;;;;;;;;;1026752;28;859;-40
2022/02/05 04:00:20;;;;;;;;;;;;;;;;;;1026812;28;1022;-41
2022/02/05 04:00:51;;;;;;;;;;;;;;;;;;1026696;28;907;-40
2022/02/05 04:01:21;;;;;;;;;;;;;;;;;;1026915;28;1131;-40
2022/02/05 04:01:53;;;;;;;;;;;;;;;;;;1026746;28;954;-41
2022/02/05 04:02:24;;;;;;;;;;;;;;;;;;1026799;28;815;-40
2022/02/05 04:02:54;;;;;;;;;;;;;;;;;;1026904;28;1069;-40
2022/02/05 04:03:24;;;;;;;;;;;;;;;;;;1026616;28;935;-40
2022/02/05 04:03:55;;;;;;;;;;;;;;;;;;1026936;28;855;-40
2022/02/05 04:04:28;;;;;;;;;;;;;;;;;;1026828;28;947;-39
2022/02/05 04:04:58;;;;;;;;;;;;;;;;;;1026589;28;1979;-40
2022/02/05 04:05:29;;;;;;;;;;;;;;;;;;1027017;28;982;-40
2022/02/05 04:05:59;;;;;;;;;;;;;;;;;;1026493;28;1080;-40
2022/02/05 04:06:29;;;;;;;;;;;;;;;;;;1027165;28;875;-41
2022/02/05 04:07:01;;;;;;;;;;;;;;;;;;1026695;28;922;-41
2022/02/05 04:07:35;;;;;;;;;;;;;;;;;;1026822;28;1010;-40
2022/02/05 04:08:09;;;;;;;;;;;;;;;;;;1026848;28;950;-41
2022/02/05 04:08:39;;;;;;;;;;;;;;;;;;1026627;28;1050;-40
2022/02/05 04:09:18;;;;;;;;;;;;;;;;;;1026965;28;903;-41
2022/02/05 04:09:52;;;;;;;;;;;;;;;;;;1026877;28;1079;-40
2022/02/05 04:10:31;;;;;;;;;;;;;;;;;;1026508;28;1117;-40
2022/02/05 04:11:09;;;;;;;;;;;;;;;;;;1026733;28;820;-40
2022/02/05 04:16:08;;;;;;;;;;;;;;;;;;1026783;28;903;-40
2022/02/05 04:16:38;;;;;;;;;;;;;;;;;;1026656;28;959;-41
2022/02/05 04:17:09;;;;;;;;;;;;;;;;;;1026776;28;966;-40
2022/02/05 04:17:39;;;;;;;;;;;;;;;;;;1026830;28;1061;-40
2022/02/05 04:18:09;;;;;;;;;;;;;;;;;;1026714;28;967;-40
2022/02/05 04:18:40;;;;;;;;;;;;;;;;;;1026866;28;1337;-39
2022/02/05 04:19:10;;;;;;;;;;;;;;;;;;1026676;28;951;-40
2022/02/05 04:19:41;;;;;;;;;;;;;;;;;;1026811;28;957;-41
2022/02/05 04:20:11;;;;;;;;;;;;;;;;;;1026888;28;920;-40
2022/02/05 04:20:41;;;;;;;;;;;;;;;;;;1026450;28;813;-40
2022/02/05 04:21:11;;;;;;;;;;;;;;;;;;1026758;28;1141;-40
2022/02/05 04:21:42;;;;;;;;;;;;;;;;;;1026565;28;967;-40
2022/02/05 04:22:12;;;;;;;;;;;;;;;;;;1026941;28;997;-40
2022/02/05 04:22:43;;;;;;;;;;;;;;;;;;1026759;28;927;-41
2022/02/05 04:23:13;;;;;;;;;;;;;;;;;;1026692;28;896;-40
2022/02/05 04:23:44;;;;;;;;;;;;;;;;;;1026872;28;1002;-41
2022/02/05 04:24:14;;;;;;;;;;;;;;;;;;1026632;28;926;-40
2022/02/05 04:24:44;;;;;;;;;;;;;;;;;;1026911;28;1125;-40
2022/02/05 04:25:15;;;;;;;;;;;;;;;;;;1026638;28;1914;-40
2022/02/05 04:25:46;;;;;;;;;;;;;;;;;;1026644;28;974;-40
2022/02/05 04:26:17;;;;;;;;;;;;;;;;;;1026921;28;1074;-40
2022/02/05 04:26:47;;;;;;;;;;;;;;;;;;1026626;28;804;-40
2022/02/05 04:27:18;;;;;;;;;;;;;;;;;;1026696;28;964;-40
2022/02/05 04:27:48;;;;;;;;;;;;;;;;;;1026803;28;922;-40
2022/02/05 04:28:18;;;;;;;;;;;;;;;;;;1026720;28;799;-40
2022/02/05 04:28:49;;;;;;;;;;;;;;;;;;1030029;28;1150;-40
2022/02/05 04:29:19;;;;;;;;;;;;;;;;;;1030692;28;870;-40
2022/02/05 04:29:49;;;;;;;;;;;;;;;;;;1030857;28;941;-40
2022/02/05 04:30:20;;;;;;;;;;;;;;;;;;1030431;28;1021;-40
2022/02/05 04:30:50;;;;;;;;;;;;;;;;;;1031025;28;894;-40
2022/02/05 04:31:20;;;;;;;;;;;;;;;;;;1030538;28;1090;-40
2022/02/05 04:31:51;;;;;;;;;;;;;;;;;;1030897;28;980;-40
2022/02/05 04:32:21;;;;;;;;;;;;;;;;;;1030754;28;1085;-40
2022/02/05 04:32:52;;;;;;;;;;;;;;;;;;1030788;28;898;-41
2022/02/05 04:33:22;;;;;;;;;;;;;;;;;;1030784;28;1053;-40
2022/02/05 04:33:52;;;;;;;;;;;;;;;;;;1030528;28;958;-40
2022/02/05 04:34:23;;;;;;;;;;;;;;;;;;1030955;28;883;-40
2022/02/05 04:34:53;;;;;;;;;;;;;;;;;;1030583;28;958;-40
2022/02/05 04:35:23;;;;;;;;;;;;;;;;;;1030272;28;1612;-39
2022/02/05 04:35:54;;;;;;;;;;;;;;;;;;1030513;28;1002;-39
2022/02/05 04:36:24;;;;;;;;;;;;;;;;;;1030255;28;942;-39
2022/02/05 04:36:55;;;;;;;;;;;;;;;;;;1030461;28;977;-40
2022/02/05 04:37:28;;;;;;;;;;;;;;;;;;1026307;28;1054;-40
2022/02/05 04:38:00;;;;;;;;;;;;;;;;;;1026217;28;989;-40
2022/02/05 04:38:32;;;;;;;;;;;;;;;;;;1027498;28;1006;-40
2022/02/05 04:39:09;;;;;;;;;;;;;;;;;;1030503;28;1041;-40
2022/02/05 04:39:46;;;;;;;;;;;;;;;;;;1030764;28;981;-39
2022/02/05 04:40:54;;;;;;;;;;;;;;;;;;1030463;28;907;-40
2022/02/05 04:41:32;;;;;;;;;;;;;;;;;;1030623;28;973;-40
2022/02/05 04:42:13;;;;;;;;;;;;;;;;;;1030702;28;975;-40
2022/02/05 04:43:44;;;;;;;;;;;;;;;;;;1030641;28;791;-40
2022/02/05 04:46:56;;;;;;;;;;;;;;;;;;1030619;28;957;-40
2022/02/05 04:51:45;;;;;;;;;;;;;;;;;;1030722;28;907;-40
2022/02/05 04:54:43;;;;;;;;;;;;;;;;;;1030700;28;978;-41
2022/02/05 05:00:07;;;;;;;;;;;;;;;;;;1030923;28;843;-40
2022/02/05 05:03:03;;;;;;;;;;;;;;;;;;1030504;28;965;-41
2022/02/05 05:04:35;;;;;;;;;;;;;;;;;;1030571;28;1007;-39
2022/02/05 05:05:24;;;;;;;;;;;;;;;;;;1030322;28;1979;-39
2022/02/05 05:07:42;;;;;;;;;;;;;;;;;;1030831;28;847;-39
2022/02/05 05:08:32;;;;;;;;;;;;;;;;;;1030550;28;1412;-40
2022/02/05 05:10:31;;;;;;;;;;;;;;;;;;1030669;28;903;-40
2022/02/05 05:12:17;;;;;;;;;;;;;;;;;;1030839;28;1003;-40
2022/02/05 05:15:18;;;;;;;;;;;;;;;;;;1030508;28;1187;-41
2022/02/05 05:19:29;;;;;;;;;;;;;;;;;;1030713;28;1089;-40
2022/02/05 05:19:59;;;;;;;;;;;;;;;;;;1030387;28;1222;-40
2022/02/05 05:20:30;;;;;;;;;;;;;;;;;;1030700;28;890;-41
2022/02/05 05:21:00;;;;;;;;;;;;;;;;;;1030525;28;1053;-40
2022/02/05 05:21:31;;;;;;;;;;;;;;;;;;1030589;28;894;-41
2022/02/05 05:22:02;;;;;;;;;;;;;;;;;;1030731;28;964;-41
2022/02/05 05:22:32;;;;;;;;;;;;;;;;;;1030475;28;981;-41
2022/02/05 05:23:02;;;;;;;;;;;;;;;;;;1030824;28;934;-40
2022/02/05 05:23:33;;;;;;;;;;;;;;;;;;1030566;28;920;-41
2022/02/05 05:24:03;;;;;;;;;;;;;;;;;;1030742;28;828;-40
2022/02/05 05:24:34;;;;;;;;;;;;;;;;;;1031452;28;1003;-41
2022/02/05 05:25:05;;;;;;;;;;;;;;;;;;1031292;28;1914;-41
2022/02/05 05:25:35;;;;;;;;;;;;;;;;;;1031480;28;993;-42
2022/02/05 05:26:06;;;;;;;;;;;;;;;;;;1031174;28;1029;-42
2022/02/05 05:26:37;;;;;;;;;;;;;;;;;;1031393;28;757;-41
2022/02/05 05:27:08;;;;;;;;;;;;;;;;;;1031615;28;942;-40
2022/02/05 05:27:38;;;;;;;;;;;;;;;;;;1031199;28;907;-41
2022/02/05 05:28:08;;;;;;;;;;;;;;;;;;1031535;28;907;-41
2022/02/05 05:28:39;;;;;;;;;;;;;;;;;;1031060;28;1114;-42
2022/02/05 05:29:09;;;;;;;;;;;;;;;;;;1031684;28;957;-40
2022/02/05 05:29:39;;;;;;;;;;;;;;;;;;1031301;28;879;-38
2022/02/05 05:30:10;;;;;;;;;;;;;;;;;;1031501;28;941;-41
2022/02/05 05:30:41;;;;;;;;;;;;;;;;;;1031184;28;1009;-40
2022/02/05 05:31:11;;;;;;;;;;;;;;;;;;1031423;28;1043;-40
2022/02/05 05:31:42;;;;;;;;;;;;;;;;;;1031305;28;1003;-41
2022/02/05 05:32:12;;;;;;;;;;;;;;;;;;1031356;28;1042;-40
2022/02/05 05:32:42;;;;;;;;;;;;;;;;;;1031424;28;878;-40
2022/02/05 05:33:13;;;;;;;;;;;;;;;;;;1031468;28;1592;-40
2022/02/05 05:33:43;;;;;;;;;;;;;;;;;;1031191;28;810;-40
2022/02/05 05:34:13;;;;;;;;;;;;;;;;;;1031575;28;943;-39
2022/02/05 05:34:44;;;;;;;;;;;;;;;;;;1031056;28;997;-41
2022/02/05 05:35:14;;;;;;;;;;;;;;;;;;1031725;28;795;-40
2022/02/05 05:35:45;;;;;;;;;;;;;;;;;;1031155;28;944;-40
2022/02/05 05:36:15;;;;;;;;;;;;;;;;;;1031532;28;866;-40
2022/02/05 05:36:45;;;;;;;;;;;;;;;;;;1031284;28;935;-41
2022/02/05 05:37:19;;;;;;;;;;;;;;;;;;1031371;28;887;-40
2022/02/05 05:37:50;;;;;;;;;;;;;;;;;;1031559;28;1545;-40
2022/02/05 05:38:20;;;;;;;;;;;;;;;;;;1031186;28;958;-40
2022/02/05 05:38:51;;;;;;;;;;;;;;;;;;1031345;28;981;-40
2022/02/05 05:39:22;;;;;;;;;;;;;;;;;;1031486;28;967;-41
2022/02/05 05:39:52;;;;;;;;;;;;;;;;;;1031343;28;899;-41
2022/02/05 05:40:22;;;;;;;;;;;;;;;;;;1031322;28;975;-40
2022/02/05 05:40:53;;;;;;;;;;;;;;;;;;1031243;28;998;-40
2022/02/05 05:41:23;;;;;;;;;;;;;;;;;;1031523;28;891;-41
2022/02/05 05:41:53;;;;;;;;;;;;;;;;;;1031465;28;961;-40
2022/02/05 05:42:28;;;;;;;;;;;;;;;;;;1031328;28;822;-40
2022/02/05 05:43:05;;;;;;;;;;;;;;;;;;1030906;28;1467;-40
2022/02/05 05:43:49;;;;;;;;;;;;;;;;;;1031213;28;902;-39